sensor_id;sensor_type;location;lat;lon;timestamp;P1;durP1;ratioP1;P2;durP2;ratioP2
55800;SDS011;41730;51.960;20.158;2023-02-01T00:00:42;10.20;;;6.10;;
55800;SDS011;41730;51.960;20.158;2023-02-01T00:03:14;8.40;;;5.40;;
55800;SDS011;41730;51.960;20.158;2023-02-01T00:05:55;9.50;;;6.20;;
55800;SDS011;41730;51.960;20.158;2023-02-01T00:08:27;7.80;;;5.10;;
55800;SDS011;41730;51.960;20.158;2023-02-01T00:11:00;10.30;;;5.90;;
55800;SDS011;41730;51.960;20.158;2023-02-01T00:13:33;11.30;;;5.30;;
55800;SDS011;41730;51.960;20.158;2023-02-01T00:16:08;9.10;;;5.20;;
55800;SDS011;41730;51.960;20.158;2023-02-01T00:18:42;8.70;;;5.40;;
55800;SDS011;41730;51.960;20.158;2023-02-01T00:21:15;10.20;;;5.90;;
55800;SDS011;41730;51.960;20.158;2023-02-01T00:23:48;7.40;;;5.40;;
55800;SDS011;41730;51.960;20.158;2023-02-01T00:26:22;9.10;;;4.80;;
55800;SDS011;41730;51.960;20.158;2023-02-01T00:28:57;7.80;;;4.90;;
55800;SDS011;41730;51.960;20.158;2023-02-01T00:31:29;7.70;;;4.80;;
55800;SDS011;41730;51.960;20.158;2023-02-01T00:34:01;6.60;;;4.20;;
55800;SDS011;41730;51.960;20.158;2023-02-01T00:36:33;7.50;;;3.90;;
55800;SDS011;41730;51.960;20.158;2023-02-01T00:39:04;6.20;;;3.70;;
55800;SDS011;41730;51.960;20.158;2023-02-01T00:41:36;8.80;;;3.60;;
55800;SDS011;41730;51.960;20.158;2023-02-01T00:44:08;6.40;;;3.20;;
55800;SDS011;41730;51.960;20.158;2023-02-01T00:46:40;5.70;;;3.20;;
55800;SDS011;41730;51.960;20.158;2023-02-01T00:49:12;6.50;;;3.10;;
55800;SDS011;41730;51.960;20.158;2023-02-01T00:51:43;6.40;;;3.00;;
55800;SDS011;41730;51.960;20.158;2023-02-01T00:54:15;5.00;;;2.60;;
55800;SDS011;41730;51.960;20.158;2023-02-01T00:56:47;9.30;;;2.80;;
55800;SDS011;41730;51.960;20.158;2023-02-01T00:59:18;7.50;;;2.80;;
55800;SDS011;41730;51.960;20.158;2023-02-01T01:01:50;6.90;;;2.50;;
55800;SDS011;41730;51.960;20.158;2023-02-01T01:04:22;8.50;;;2.40;;
55800;SDS011;41730;51.960;20.158;2023-02-01T01:06:54;7.60;;;2.40;;
55800;SDS011;41730;51.960;20.158;2023-02-01T01:09:25;4.80;;;2.20;;
55800;SDS011;41730;51.960;20.158;2023-02-01T01:11:57;5.90;;;2.20;;
55800;SDS011;41730;51.960;20.158;2023-02-01T01:14:30;5.20;;;1.80;;
55800;SDS011;41730;51.960;20.158;2023-02-01T01:17:03;4.30;;;2.20;;
55800;SDS011;41730;51.960;20.158;2023-02-01T01:19:34;3.60;;;1.90;;
55800;SDS011;41730;51.960;20.158;2023-02-01T01:22:06;5.60;;;2.00;;
55800;SDS011;41730;51.960;20.158;2023-02-01T01:24:38;7.00;;;2.30;;
55800;SDS011;41730;51.960;20.158;2023-02-01T01:27:09;5.40;;;1.80;;
55800;SDS011;41730;51.960;20.158;2023-02-01T01:29:41;5.10;;;2.20;;
55800;SDS011;41730;51.960;20.158;2023-02-01T01:32:12;4.20;;;1.60;;
55800;SDS011;41730;51.960;20.158;2023-02-01T01:34:44;4.90;;;1.70;;
55800;SDS011;41730;51.960;20.158;2023-02-01T01:37:16;5.70;;;1.60;;
55800;SDS011;41730;51.960;20.158;2023-02-01T01:39:47;7.10;;;1.60;;
55800;SDS011;41730;51.960;20.158;2023-02-01T01:42:19;6.10;;;1.60;;
55800;SDS011;41730;51.960;20.158;2023-02-01T01:45:00;6.20;;;1.70;;
55800;SDS011;41730;51.960;20.158;2023-02-01T01:47:35;7.80;;;1.80;;
55800;SDS011;41730;51.960;20.158;2023-02-01T01:50:11;7.70;;;2.00;;
55800;SDS011;41730;51.960;20.158;2023-02-01T01:52:48;6.40;;;1.50;;
55800;SDS011;41730;51.960;20.158;2023-02-01T01:55:23;7.90;;;1.50;;
55800;SDS011;41730;51.960;20.158;2023-02-01T01:57:57;6.10;;;1.30;;
55800;SDS011;41730;51.960;20.158;2023-02-01T02:00:35;12.20;;;2.00;;
55800;SDS011;41730;51.960;20.158;2023-02-01T02:03:08;7.80;;;1.90;;
55800;SDS011;41730;51.960;20.158;2023-02-01T02:05:44;7.50;;;1.70;;
55800;SDS011;41730;51.960;20.158;2023-02-01T02:08:18;7.90;;;1.60;;
55800;SDS011;41730;51.960;20.158;2023-02-01T02:10:51;6.10;;;1.90;;
55800;SDS011;41730;51.960;20.158;2023-02-01T02:13:29;8.50;;;1.80;;
55800;SDS011;41730;51.960;20.158;2023-02-01T02:16:09;6.50;;;1.60;;
55800;SDS011;41730;51.960;20.158;2023-02-01T02:19:01;5.70;;;1.80;;
55800;SDS011;41730;51.960;20.158;2023-02-01T02:21:55;6.80;;;1.80;;
55800;SDS011;41730;51.960;20.158;2023-02-01T02:25:00;5.90;;;2.10;;
55800;SDS011;41730;51.960;20.158;2023-02-01T02:27:59;10.80;;;2.10;;
55800;SDS011;41730;51.960;20.158;2023-02-01T02:30:48;4.80;;;1.70;;
55800;SDS011;41730;51.960;20.158;2023-02-01T02:33:45;7.70;;;2.20;;
55800;SDS011;41730;51.960;20.158;2023-02-01T02:36:29;7.70;;;2.70;;
55800;SDS011;41730;51.960;20.158;2023-02-01T02:39:07;6.50;;;2.00;;
55800;SDS011;41730;51.960;20.158;2023-02-01T02:41:48;8.30;;;2.20;;
55800;SDS011;41730;51.960;20.158;2023-02-01T02:44:44;6.20;;;1.80;;
55800;SDS011;41730;51.960;20.158;2023-02-01T02:47:49;4.40;;;1.70;;
55800;SDS011;41730;51.960;20.158;2023-02-01T02:50:26;5.60;;;1.90;;
55800;SDS011;41730;51.960;20.158;2023-02-01T02:53:22;13.10;;;2.00;;
55800;SDS011;41730;51.960;20.158;2023-02-01T02:56:17;8.00;;;1.80;;
55800;SDS011;41730;51.960;20.158;2023-02-01T02:59:08;9.60;;;2.00;;
55800;SDS011;41730;51.960;20.158;2023-02-01T03:01:59;6.90;;;1.80;;
55800;SDS011;41730;51.960;20.158;2023-02-01T03:04:53;8.20;;;1.90;;
55800;SDS011;41730;51.960;20.158;2023-02-01T03:10:34;7.40;;;2.50;;
55800;SDS011;41730;51.960;20.158;2023-02-01T03:13:12;5.30;;;1.50;;
55800;SDS011;41730;51.960;20.158;2023-02-01T03:15:49;10.70;;;2.40;;
55800;SDS011;41730;51.960;20.158;2023-02-01T03:18:28;6.30;;;1.80;;
55800;SDS011;41730;51.960;20.158;2023-02-01T03:21:04;5.40;;;1.80;;
55800;SDS011;41730;51.960;20.158;2023-02-01T03:23:40;7.80;;;2.40;;
55800;SDS011;41730;51.960;20.158;2023-02-01T03:26:15;9.00;;;1.70;;
55800;SDS011;41730;51.960;20.158;2023-02-01T03:31:24;5.30;;;1.90;;
55800;SDS011;41730;51.960;20.158;2023-02-01T03:33:57;6.30;;;1.70;;
55800;SDS011;41730;51.960;20.158;2023-02-01T03:36:29;7.10;;;1.70;;
55800;SDS011;41730;51.960;20.158;2023-02-01T03:39:06;8.10;;;1.50;;
55800;SDS011;41730;51.960;20.158;2023-02-01T03:41:46;13.30;;;2.30;;
55800;SDS011;41730;51.960;20.158;2023-02-01T03:44:22;6.50;;;1.80;;
55800;SDS011;41730;51.960;20.158;2023-02-01T03:46:57;6.60;;;1.80;;
55800;SDS011;41730;51.960;20.158;2023-02-01T03:49:32;10.00;;;2.00;;
55800;SDS011;41730;51.960;20.158;2023-02-01T03:52:06;8.00;;;2.10;;
55800;SDS011;41730;51.960;20.158;2023-02-01T03:54:43;10.30;;;2.20;;
55800;SDS011;41730;51.960;20.158;2023-02-01T03:57:16;10.10;;;2.00;;
55800;SDS011;41730;51.960;20.158;2023-02-01T03:59:51;12.60;;;2.00;;
55800;SDS011;41730;51.960;20.158;2023-02-01T04:02:23;14.20;;;2.20;;
55800;SDS011;41730;51.960;20.158;2023-02-01T04:04:54;6.30;;;1.90;;
55800;SDS011;41730;51.960;20.158;2023-02-01T04:07:26;9.10;;;1.90;;
55800;SDS011;41730;51.960;20.158;2023-02-01T04:09:58;11.10;;;2.20;;
55800;SDS011;41730;51.960;20.158;2023-02-01T04:12:32;10.00;;;2.00;;
55800;SDS011;41730;51.960;20.158;2023-02-01T04:15:04;8.50;;;1.90;;
55800;SDS011;41730;51.960;20.158;2023-02-01T04:17:37;8.50;;;1.80;;
55800;SDS011;41730;51.960;20.158;2023-02-01T04:20:10;6.10;;;1.70;;
55800;SDS011;41730;51.960;20.158;2023-02-01T04:22:42;6.80;;;2.00;;
55800;SDS011;41730;51.960;20.158;2023-02-01T04:25:14;12.70;;;2.40;;
55800;SDS011;41730;51.960;20.158;2023-02-01T04:27:46;9.00;;;1.90;;
55800;SDS011;41730;51.960;20.158;2023-02-01T04:30:18;11.90;;;2.50;;
55800;SDS011;41730;51.960;20.158;2023-02-01T04:32:52;6.70;;;1.90;;
55800;SDS011;41730;51.960;20.158;2023-02-01T04:35:24;8.20;;;2.30;;
55800;SDS011;41730;51.960;20.158;2023-02-01T04:38:00;10.20;;;3.00;;
55800;SDS011;41730;51.960;20.158;2023-02-01T04:40:34;8.20;;;2.30;;
55800;SDS011;41730;51.960;20.158;2023-02-01T04:43:11;15.00;;;2.80;;
55800;SDS011;41730;51.960;20.158;2023-02-01T04:45:42;11.10;;;2.30;;
55800;SDS011;41730;51.960;20.158;2023-02-01T04:48:18;9.70;;;2.10;;
55800;SDS011;41730;51.960;20.158;2023-02-01T04:50:51;9.80;;;2.40;;
55800;SDS011;41730;51.960;20.158;2023-02-01T04:53:23;10.80;;;2.50;;
55800;SDS011;41730;51.960;20.158;2023-02-01T04:55:55;8.00;;;2.50;;
55800;SDS011;41730;51.960;20.158;2023-02-01T04:58:27;10.40;;;2.50;;
55800;SDS011;41730;51.960;20.158;2023-02-01T05:00:58;14.50;;;2.40;;
55800;SDS011;41730;51.960;20.158;2023-02-01T05:03:32;8.00;;;2.70;;
55800;SDS011;41730;51.960;20.158;2023-02-01T05:06:05;9.50;;;2.50;;
55800;SDS011;41730;51.960;20.158;2023-02-01T05:08:36;13.90;;;2.90;;
55800;SDS011;41730;51.960;20.158;2023-02-01T05:11:08;10.80;;;2.80;;
55800;SDS011;41730;51.960;20.158;2023-02-01T05:14:00;9.50;;;3.00;;
55800;SDS011;41730;51.960;20.158;2023-02-01T05:16:31;9.10;;;2.30;;
55800;SDS011;41730;51.960;20.158;2023-02-01T05:19:03;9.50;;;2.50;;
55800;SDS011;41730;51.960;20.158;2023-02-01T05:21:35;6.60;;;2.10;;
55800;SDS011;41730;51.960;20.158;2023-02-01T05:24:07;7.90;;;2.90;;
55800;SDS011;41730;51.960;20.158;2023-02-01T05:26:41;9.00;;;2.10;;
55800;SDS011;41730;51.960;20.158;2023-02-01T05:29:13;7.10;;;2.10;;
55800;SDS011;41730;51.960;20.158;2023-02-01T05:31:45;9.80;;;2.10;;
55800;SDS011;41730;51.960;20.158;2023-02-01T05:34:19;6.50;;;1.70;;
55800;SDS011;41730;51.960;20.158;2023-02-01T05:36:51;10.00;;;2.40;;
55800;SDS011;41730;51.960;20.158;2023-02-01T05:39:22;8.20;;;1.90;;
55800;SDS011;41730;51.960;20.158;2023-02-01T05:41:55;9.20;;;2.30;;
55800;SDS011;41730;51.960;20.158;2023-02-01T05:44:26;8.70;;;2.00;;
55800;SDS011;41730;51.960;20.158;2023-02-01T05:46:58;8.50;;;1.80;;
55800;SDS011;41730;51.960;20.158;2023-02-01T05:49:30;7.50;;;1.80;;
55800;SDS011;41730;51.960;20.158;2023-02-01T05:52:01;9.00;;;1.90;;
55800;SDS011;41730;51.960;20.158;2023-02-01T05:54:33;8.40;;;2.00;;
55800;SDS011;41730;51.960;20.158;2023-02-01T05:57:05;10.70;;;1.80;;
55800;SDS011;41730;51.960;20.158;2023-02-01T05:59:37;12.50;;;2.20;;
55800;SDS011;41730;51.960;20.158;2023-02-01T06:02:09;6.80;;;2.20;;
55800;SDS011;41730;51.960;20.158;2023-02-01T06:04:41;6.30;;;1.90;;
55800;SDS011;41730;51.960;20.158;2023-02-01T06:07:13;9.40;;;2.00;;
55800;SDS011;41730;51.960;20.158;2023-02-01T06:09:44;9.30;;;2.10;;
55800;SDS011;41730;51.960;20.158;2023-02-01T06:12:16;12.60;;;2.30;;
55800;SDS011;41730;51.960;20.158;2023-02-01T06:14:48;9.50;;;2.60;;
55800;SDS011;41730;51.960;20.158;2023-02-01T06:17:19;11.50;;;2.40;;
55800;SDS011;41730;51.960;20.158;2023-02-01T06:19:51;10.80;;;2.20;;
55800;SDS011;41730;51.960;20.158;2023-02-01T06:22:22;7.20;;;2.10;;
55800;SDS011;41730;51.960;20.158;2023-02-01T06:24:54;11.60;;;2.50;;
55800;SDS011;41730;51.960;20.158;2023-02-01T06:27:27;11.20;;;2.80;;
55800;SDS011;41730;51.960;20.158;2023-02-01T06:29:59;8.60;;;2.70;;
55800;SDS011;41730;51.960;20.158;2023-02-01T06:32:31;11.30;;;2.90;;
55800;SDS011;41730;51.960;20.158;2023-02-01T06:35:03;7.60;;;2.90;;
55800;SDS011;41730;51.960;20.158;2023-02-01T06:37:37;14.90;;;3.50;;
55800;SDS011;41730;51.960;20.158;2023-02-01T06:40:12;10.10;;;2.50;;
55800;SDS011;41730;51.960;20.158;2023-02-01T06:42:44;10.90;;;2.50;;
55800;SDS011;41730;51.960;20.158;2023-02-01T06:45:17;13.10;;;2.80;;
55800;SDS011;41730;51.960;20.158;2023-02-01T06:47:49;10.70;;;2.80;;
55800;SDS011;41730;51.960;20.158;2023-02-01T06:50:21;13.30;;;2.90;;
55800;SDS011;41730;51.960;20.158;2023-02-01T06:52:52;13.90;;;2.90;;
55800;SDS011;41730;51.960;20.158;2023-02-01T06:55:24;12.40;;;2.70;;
55800;SDS011;41730;51.960;20.158;2023-02-01T06:57:56;13.20;;;2.90;;
55800;SDS011;41730;51.960;20.158;2023-02-01T07:00:29;7.40;;;2.30;;
55800;SDS011;41730;51.960;20.158;2023-02-01T07:03:00;8.70;;;3.80;;
55800;SDS011;41730;51.960;20.158;2023-02-01T07:05:32;11.00;;;3.40;;
55800;SDS011;41730;51.960;20.158;2023-02-01T07:08:04;11.90;;;2.70;;
55800;SDS011;41730;51.960;20.158;2023-02-01T07:10:37;9.40;;;2.60;;
55800;SDS011;41730;51.960;20.158;2023-02-01T07:13:09;9.00;;;2.50;;
55800;SDS011;41730;51.960;20.158;2023-02-01T07:15:41;7.90;;;2.00;;
55800;SDS011;41730;51.960;20.158;2023-02-01T07:18:14;7.60;;;2.40;;
55800;SDS011;41730;51.960;20.158;2023-02-01T07:20:50;16.10;;;2.90;;
55800;SDS011;41730;51.960;20.158;2023-02-01T07:23:22;8.80;;;2.90;;
55800;SDS011;41730;51.960;20.158;2023-02-01T07:25:57;15.70;;;3.20;;
55800;SDS011;41730;51.960;20.158;2023-02-01T07:28:30;9.00;;;2.50;;
55800;SDS011;41730;51.960;20.158;2023-02-01T07:31:04;7.10;;;2.40;;
55800;SDS011;41730;51.960;20.158;2023-02-01T07:33:36;11.50;;;2.60;;
55800;SDS011;41730;51.960;20.158;2023-02-01T07:36:10;11.80;;;2.70;;
55800;SDS011;41730;51.960;20.158;2023-02-01T07:38:43;7.80;;;2.30;;
55800;SDS011;41730;51.960;20.158;2023-02-01T07:41:16;9.50;;;2.40;;
55800;SDS011;41730;51.960;20.158;2023-02-01T07:43:48;10.10;;;2.40;;
55800;SDS011;41730;51.960;20.158;2023-02-01T07:46:21;15.70;;;3.00;;
55800;SDS011;41730;51.960;20.158;2023-02-01T07:48:53;6.90;;;2.60;;
55800;SDS011;41730;51.960;20.158;2023-02-01T07:51:25;10.30;;;3.00;;
55800;SDS011;41730;51.960;20.158;2023-02-01T07:53:58;7.10;;;1.80;;
55800;SDS011;41730;51.960;20.158;2023-02-01T07:56:30;9.00;;;2.60;;
55800;SDS011;41730;51.960;20.158;2023-02-01T07:59:02;9.90;;;2.30;;
55800;SDS011;41730;51.960;20.158;2023-02-01T08:01:35;8.50;;;2.20;;
55800;SDS011;41730;51.960;20.158;2023-02-01T08:04:07;8.50;;;1.70;;
55800;SDS011;41730;51.960;20.158;2023-02-01T08:06:40;5.60;;;2.00;;
55800;SDS011;41730;51.960;20.158;2023-02-01T08:09:12;13.40;;;2.70;;
55800;SDS011;41730;51.960;20.158;2023-02-01T08:11:44;12.20;;;3.30;;
55800;SDS011;41730;51.960;20.158;2023-02-01T08:14:16;8.80;;;2.80;;
55800;SDS011;41730;51.960;20.158;2023-02-01T08:16:48;10.30;;;2.60;;
55800;SDS011;41730;51.960;20.158;2023-02-01T08:19:20;14.00;;;2.70;;
55800;SDS011;41730;51.960;20.158;2023-02-01T08:21:51;12.60;;;3.00;;
55800;SDS011;41730;51.960;20.158;2023-02-01T08:24:23;9.90;;;3.30;;
55800;SDS011;41730;51.960;20.158;2023-02-01T08:26:55;14.10;;;3.60;;
55800;SDS011;41730;51.960;20.158;2023-02-01T08:29:26;12.10;;;3.30;;
55800;SDS011;41730;51.960;20.158;2023-02-01T08:31:58;13.00;;;3.70;;
55800;SDS011;41730;51.960;20.158;2023-02-01T08:34:30;14.00;;;3.10;;
55800;SDS011;41730;51.960;20.158;2023-02-01T08:37:03;13.50;;;3.30;;
55800;SDS011;41730;51.960;20.158;2023-02-01T08:39:35;16.50;;;3.00;;
55800;SDS011;41730;51.960;20.158;2023-02-01T08:42:07;15.10;;;3.80;;
55800;SDS011;41730;51.960;20.158;2023-02-01T08:44:56;15.90;;;4.00;;
55800;SDS011;41730;51.960;20.158;2023-02-01T08:47:28;13.10;;;3.70;;
55800;SDS011;41730;51.960;20.158;2023-02-01T08:50:00;10.00;;;3.50;;
55800;SDS011;41730;51.960;20.158;2023-02-01T08:52:32;9.00;;;2.90;;
55800;SDS011;41730;51.960;20.158;2023-02-01T08:55:06;9.60;;;2.90;;
55800;SDS011;41730;51.960;20.158;2023-02-01T08:57:40;9.00;;;2.70;;
55800;SDS011;41730;51.960;20.158;2023-02-01T09:00:13;14.90;;;3.80;;
55800;SDS011;41730;51.960;20.158;2023-02-01T09:02:46;12.30;;;3.10;;
55800;SDS011;41730;51.960;20.158;2023-02-01T09:05:18;14.80;;;3.10;;
55800;SDS011;41730;51.960;20.158;2023-02-01T09:08:05;10.60;;;2.90;;
55800;SDS011;41730;51.960;20.158;2023-02-01T09:10:37;14.40;;;3.60;;
55800;SDS011;41730;51.960;20.158;2023-02-01T09:13:09;8.70;;;2.90;;
55800;SDS011;41730;51.960;20.158;2023-02-01T09:15:43;9.30;;;2.70;;
55800;SDS011;41730;51.960;20.158;2023-02-01T09:18:16;12.90;;;3.20;;
55800;SDS011;41730;51.960;20.158;2023-02-01T09:20:48;15.10;;;3.30;;
55800;SDS011;41730;51.960;20.158;2023-02-01T09:23:20;8.50;;;2.60;;
55800;SDS011;41730;51.960;20.158;2023-02-01T09:25:52;8.70;;;2.60;;
55800;SDS011;41730;51.960;20.158;2023-02-01T09:28:28;15.00;;;2.90;;
55800;SDS011;41730;51.960;20.158;2023-02-01T09:31:00;10.90;;;2.90;;
55800;SDS011;41730;51.960;20.158;2023-02-01T09:33:33;15.50;;;3.10;;
55800;SDS011;41730;51.960;20.158;2023-02-01T09:36:06;8.00;;;2.90;;
55800;SDS011;41730;51.960;20.158;2023-02-01T09:38:38;8.20;;;2.70;;
55800;SDS011;41730;51.960;20.158;2023-02-01T09:41:22;16.60;;;3.70;;
55800;SDS011;41730;51.960;20.158;2023-02-01T09:44:24;14.10;;;3.60;;
55800;SDS011;41730;51.960;20.158;2023-02-01T09:47:12;12.20;;;3.60;;
55800;SDS011;41730;51.960;20.158;2023-02-01T09:49:48;12.50;;;4.30;;
55800;SDS011;41730;51.960;20.158;2023-02-01T09:52:27;13.70;;;3.90;;
55800;SDS011;41730;51.960;20.158;2023-02-01T09:55:03;12.60;;;4.00;;
55800;SDS011;41730;51.960;20.158;2023-02-01T09:57:45;11.70;;;3.20;;
55800;SDS011;41730;51.960;20.158;2023-02-01T10:00:25;12.00;;;3.50;;
55800;SDS011;41730;51.960;20.158;2023-02-01T10:02:59;12.60;;;3.20;;
55800;SDS011;41730;51.960;20.158;2023-02-01T10:05:37;9.60;;;3.10;;
55800;SDS011;41730;51.960;20.158;2023-02-01T10:08:24;12.30;;;3.60;;
55800;SDS011;41730;51.960;20.158;2023-02-01T10:11:06;15.10;;;3.90;;
55800;SDS011;41730;51.960;20.158;2023-02-01T10:13:50;12.50;;;3.80;;
55800;SDS011;41730;51.960;20.158;2023-02-01T10:16:31;11.90;;;3.60;;
55800;SDS011;41730;51.960;20.158;2023-02-01T10:19:32;8.50;;;4.20;;
55800;SDS011;41730;51.960;20.158;2023-02-01T10:22:10;11.10;;;4.10;;
55800;SDS011;41730;51.960;20.158;2023-02-01T10:25:15;11.10;;;3.40;;
55800;SDS011;41730;51.960;20.158;2023-02-01T10:27:53;13.50;;;4.70;;
55800;SDS011;41730;51.960;20.158;2023-02-01T10:30:27;14.60;;;5.00;;
55800;SDS011;41730;51.960;20.158;2023-02-01T10:33:32;15.20;;;5.00;;
55800;SDS011;41730;51.960;20.158;2023-02-01T10:36:10;14.70;;;5.10;;
55800;SDS011;41730;51.960;20.158;2023-02-01T10:38:45;15.50;;;4.10;;
55800;SDS011;41730;51.960;20.158;2023-02-01T10:41:18;10.30;;;3.80;;
55800;SDS011;41730;51.960;20.158;2023-02-01T10:43:53;12.00;;;3.70;;
55800;SDS011;41730;51.960;20.158;2023-02-01T10:46:28;7.90;;;2.90;;
55800;SDS011;41730;51.960;20.158;2023-02-01T10:49:02;12.00;;;3.40;;
55800;SDS011;41730;51.960;20.158;2023-02-01T10:51:42;11.80;;;5.00;;
55800;SDS011;41730;51.960;20.158;2023-02-01T10:54:19;12.80;;;4.10;;
55800;SDS011;41730;51.960;20.158;2023-02-01T10:57:01;8.60;;;3.30;;
55800;SDS011;41730;51.960;20.158;2023-02-01T10:59:36;8.40;;;3.50;;
55800;SDS011;41730;51.960;20.158;2023-02-01T11:02:15;10.80;;;3.40;;
55800;SDS011;41730;51.960;20.158;2023-02-01T11:05:03;12.10;;;3.80;;
55800;SDS011;41730;51.960;20.158;2023-02-01T11:07:38;13.30;;;4.40;;
55800;SDS011;41730;51.960;20.158;2023-02-01T11:13:07;16.60;;;6.30;;
55800;SDS011;41730;51.960;20.158;2023-02-01T11:15:45;12.00;;;4.50;;
55800;SDS011;41730;51.960;20.158;2023-02-01T11:18:26;13.60;;;4.60;;
55800;SDS011;41730;51.960;20.158;2023-02-01T11:20:59;13.00;;;4.70;;
55800;SDS011;41730;51.960;20.158;2023-02-01T11:23:32;10.80;;;3.90;;
55800;SDS011;41730;51.960;20.158;2023-02-01T11:26:11;15.10;;;5.00;;
55800;SDS011;41730;51.960;20.158;2023-02-01T11:28:50;18.10;;;6.90;;
55800;SDS011;41730;51.960;20.158;2023-02-01T11:31:26;18.70;;;5.40;;
55800;SDS011;41730;51.960;20.158;2023-02-01T11:34:00;13.90;;;4.90;;
55800;SDS011;41730;51.960;20.158;2023-02-01T11:36:38;11.80;;;5.10;;
55800;SDS011;41730;51.960;20.158;2023-02-01T11:39:19;19.70;;;7.80;;
55800;SDS011;41730;51.960;20.158;2023-02-01T11:42:02;19.80;;;6.00;;
55800;SDS011;41730;51.960;20.158;2023-02-01T11:44:42;14.70;;;4.90;;
55800;SDS011;41730;51.960;20.158;2023-02-01T11:47:22;21.50;;;5.00;;
55800;SDS011;41730;51.960;20.158;2023-02-01T11:49:56;12.30;;;3.80;;
55800;SDS011;41730;51.960;20.158;2023-02-01T11:52:42;12.50;;;4.00;;
55800;SDS011;41730;51.960;20.158;2023-02-01T11:55:36;10.40;;;3.30;;
55800;SDS011;41730;51.960;20.158;2023-02-01T11:58:20;14.40;;;4.20;;
55800;SDS011;41730;51.960;20.158;2023-02-01T12:01:10;11.70;;;4.00;;
55800;SDS011;41730;51.960;20.158;2023-02-01T12:03:59;13.70;;;3.70;;
55800;SDS011;41730;51.960;20.158;2023-02-01T12:06:51;12.90;;;4.60;;
55800;SDS011;41730;51.960;20.158;2023-02-01T12:09:31;14.20;;;4.40;;
55800;SDS011;41730;51.960;20.158;2023-02-01T12:12:19;14.80;;;4.00;;
55800;SDS011;41730;51.960;20.158;2023-02-01T12:15:03;19.60;;;4.60;;
55800;SDS011;41730;51.960;20.158;2023-02-01T12:17:53;12.40;;;4.30;;
55800;SDS011;41730;51.960;20.158;2023-02-01T12:20:42;11.40;;;4.20;;
55800;SDS011;41730;51.960;20.158;2023-02-01T12:23:31;10.60;;;3.80;;
55800;SDS011;41730;51.960;20.158;2023-02-01T12:26:33;15.60;;;4.60;;
55800;SDS011;41730;51.960;20.158;2023-02-01T12:29:17;15.10;;;5.30;;
55800;SDS011;41730;51.960;20.158;2023-02-01T12:32:00;17.10;;;5.60;;
55800;SDS011;41730;51.960;20.158;2023-02-01T12:37:57;13.70;;;4.80;;
55800;SDS011;41730;51.960;20.158;2023-02-01T12:40:56;13.50;;;4.30;;
55800;SDS011;41730;51.960;20.158;2023-02-01T12:43:41;13.10;;;5.00;;
55800;SDS011;41730;51.960;20.158;2023-02-01T12:46:22;10.70;;;4.70;;
55800;SDS011;41730;51.960;20.158;2023-02-01T12:49:02;12.00;;;5.10;;
55800;SDS011;41730;51.960;20.158;2023-02-01T12:51:43;16.30;;;4.10;;
55800;SDS011;41730;51.960;20.158;2023-02-01T12:54:18;13.80;;;4.90;;
55800;SDS011;41730;51.960;20.158;2023-02-01T12:56:54;27.30;;;10.10;;
55800;SDS011;41730;51.960;20.158;2023-02-01T12:59:31;12.30;;;4.60;;
55800;SDS011;41730;51.960;20.158;2023-02-01T13:02:10;10.00;;;4.10;;
55800;SDS011;41730;51.960;20.158;2023-02-01T13:04:49;11.30;;;4.00;;
55800;SDS011;41730;51.960;20.158;2023-02-01T13:07:34;10.60;;;5.10;;
55800;SDS011;41730;51.960;20.158;2023-02-01T13:10:13;6.80;;;3.30;;
55800;SDS011;41730;51.960;20.158;2023-02-01T13:12:51;7.50;;;2.80;;
55800;SDS011;41730;51.960;20.158;2023-02-01T13:15:31;8.10;;;3.10;;
55800;SDS011;41730;51.960;20.158;2023-02-01T13:18:13;5.50;;;2.80;;
55800;SDS011;41730;51.960;20.158;2023-02-01T13:20:49;8.90;;;3.60;;
55800;SDS011;41730;51.960;20.158;2023-02-01T13:23:29;4.50;;;2.80;;
55800;SDS011;41730;51.960;20.158;2023-02-01T13:26:05;5.70;;;2.50;;
55800;SDS011;41730;51.960;20.158;2023-02-01T13:28:40;5.50;;;2.40;;
55800;SDS011;41730;51.960;20.158;2023-02-01T13:34:38;9.40;;;3.20;;
55800;SDS011;41730;51.960;20.158;2023-02-01T13:37:28;11.40;;;5.40;;
55800;SDS011;41730;51.960;20.158;2023-02-01T13:40:16;8.40;;;3.60;;
55800;SDS011;41730;51.960;20.158;2023-02-01T13:42:56;7.80;;;4.00;;
55800;SDS011;41730;51.960;20.158;2023-02-01T13:45:32;6.00;;;3.60;;
55800;SDS011;41730;51.960;20.158;2023-02-01T13:48:18;5.80;;;2.80;;
55800;SDS011;41730;51.960;20.158;2023-02-01T13:50:55;11.20;;;5.80;;
55800;SDS011;41730;51.960;20.158;2023-02-01T13:53:29;10.20;;;5.20;;
55800;SDS011;41730;51.960;20.158;2023-02-01T13:56:06;11.00;;;5.20;;
55800;SDS011;41730;51.960;20.158;2023-02-01T13:58:43;14.60;;;4.60;;
55800;SDS011;41730;51.960;20.158;2023-02-01T14:04:06;10.10;;;4.10;;
55800;SDS011;41730;51.960;20.158;2023-02-01T14:07:21;8.40;;;5.00;;
55800;SDS011;41730;51.960;20.158;2023-02-01T14:09:53;12.90;;;5.50;;
55800;SDS011;41730;51.960;20.158;2023-02-01T14:12:44;10.60;;;4.90;;
55800;SDS011;41730;51.960;20.158;2023-02-01T14:15:19;10.00;;;4.30;;
55800;SDS011;41730;51.960;20.158;2023-02-01T14:17:53;13.00;;;6.10;;
55800;SDS011;41730;51.960;20.158;2023-02-01T14:23:17;11.80;;;5.50;;
55800;SDS011;41730;51.960;20.158;2023-02-01T14:28:58;14.00;;;5.00;;
55800;SDS011;41730;51.960;20.158;2023-02-01T14:34:34;11.70;;;5.60;;
55800;SDS011;41730;51.960;20.158;2023-02-01T14:37:26;12.30;;;5.10;;
55800;SDS011;41730;51.960;20.158;2023-02-01T14:40:03;14.20;;;4.90;;
55800;SDS011;41730;51.960;20.158;2023-02-01T14:42:45;10.10;;;4.70;;
55800;SDS011;41730;51.960;20.158;2023-02-01T14:51:27;8.80;;;4.40;;
55800;SDS011;41730;51.960;20.158;2023-02-01T14:54:00;13.80;;;7.10;;
55800;SDS011;41730;51.960;20.158;2023-02-01T14:56:32;11.50;;;5.80;;
55800;SDS011;41730;51.960;20.158;2023-02-01T14:59:06;21.70;;;8.00;;
55800;SDS011;41730;51.960;20.158;2023-02-01T15:01:48;11.80;;;5.70;;
55800;SDS011;41730;51.960;20.158;2023-02-01T15:04:25;10.90;;;5.20;;
55800;SDS011;41730;51.960;20.158;2023-02-01T15:06:57;8.30;;;4.70;;
55800;SDS011;41730;51.960;20.158;2023-02-01T15:09:36;9.40;;;4.20;;
55800;SDS011;41730;51.960;20.158;2023-02-01T15:12:16;9.20;;;4.70;;
55800;SDS011;41730;51.960;20.158;2023-02-01T15:15:10;19.00;;;8.40;;
55800;SDS011;41730;51.960;20.158;2023-02-01T15:17:50;13.70;;;7.20;;
55800;SDS011;41730;51.960;20.158;2023-02-01T15:20:25;14.40;;;5.70;;
55800;SDS011;41730;51.960;20.158;2023-02-01T15:22:58;12.50;;;7.50;;
55800;SDS011;41730;51.960;20.158;2023-02-01T15:25:33;10.90;;;6.60;;
55800;SDS011;41730;51.960;20.158;2023-02-01T15:28:09;8.10;;;5.80;;
55800;SDS011;41730;51.960;20.158;2023-02-01T15:30:51;11.70;;;5.40;;
55800;SDS011;41730;51.960;20.158;2023-02-01T15:33:25;15.90;;;8.10;;
55800;SDS011;41730;51.960;20.158;2023-02-01T15:36:07;10.70;;;6.60;;
55800;SDS011;41730;51.960;20.158;2023-02-01T15:38:48;10.30;;;6.10;;
55800;SDS011;41730;51.960;20.158;2023-02-01T15:41:54;10.70;;;6.10;;
55800;SDS011;41730;51.960;20.158;2023-02-01T15:44:30;13.00;;;6.70;;
55800;SDS011;41730;51.960;20.158;2023-02-01T15:47:14;15.90;;;7.90;;
55800;SDS011;41730;51.960;20.158;2023-02-01T15:49:50;12.20;;;6.90;;
55800;SDS011;41730;51.960;20.158;2023-02-01T15:52:25;13.90;;;7.00;;
55800;SDS011;41730;51.960;20.158;2023-02-01T15:55:05;12.10;;;6.60;;
55800;SDS011;41730;51.960;20.158;2023-02-01T15:57:49;17.60;;;9.20;;